Time;durP1;ratioP1;P1;durP2;ratioP2;P2;SDS_P1;SDS_P2;PMS_P1;PMS_P2;Temp;Humidity;BMP_temperature;BMP_pressure;BME280_temperature;BME280_humidity;BME280_pressure;Samples;Min_cycle;Max_cycle;Signal;HPM_P1;HPM_P2
2022/06/25 00:01:58;;;;;;;33.97;31.17;;;18.20;99.90;;;;;;4980641;28;20049;-69
2022/06/25 00:07:07;;;;;;;31.15;28.58;;;18.20;99.90;;;;;;4978066;28;20752;-69
2022/06/25 00:09:33;;;;;;;32.80;30.02;;;18.20;99.90;;;;;;4978994;28;20401;-69
2022/06/25 00:14:44;;;;;;;35.17;32.20;;;18.20;99.90;;;;;;4988895;28;20062;-69
2022/06/25 00:17:09;;;;;;;28.75;26.25;;;18.10;99.90;;;;;;4972784;28;20108;-69
2022/06/25 00:19:35;;;;;;;30.23;27.83;;;18.20;99.90;;;;;;4978869;28;20077;-69
2022/06/25 00:22:02;;;;;;;30.70;28.08;;;18.10;99.90;;;;;;4978084;28;20513;-69
2022/06/25 00:24:28;;;;;;;29.33;26.88;;;18.10;99.90;;;;;;4977579;28;20501;-69
2022/06/25 00:26:53;;;;;;;28.83;26.35;;;18.00;99.90;;;;;;4973804;28;20065;-68
2022/06/25 00:29:19;;;;;;;30.52;27.75;;;18.00;99.90;;;;;;4961624;28;20056;-69
2022/06/25 00:31:45;;;;;;;28.50;26.02;;;18.00;99.90;;;;;;4995022;28;20125;-68
2022/06/25 00:34:11;;;;;;;30.10;27.60;;;17.90;99.90;;;;;;4959766;28;20136;-68
2022/06/25 00:36:37;;;;;;;29.55;27.05;;;17.90;99.90;;;;;;4976587;28;20044;-69
2022/06/25 00:39:03;;;;;;;27.75;25.45;;;17.90;99.90;;;;;;4970481;28;20647;-68
2022/06/25 00:41:29;;;;;;;27.15;24.65;;;17.90;99.90;;;;;;4963094;28;20226;-68
2022/06/25 00:43:55;;;;;;;23.20;21.23;;;17.90;99.90;;;;;;4973483;28;20052;-69
2022/06/25 00:46:21;;;;;;;23.38;21.45;;;17.80;99.90;;;;;;4971171;28;20039;-69
2022/06/25 00:48:46;;;;;;;22.83;21.02;;;17.80;99.90;;;;;;4977548;28;20042;-68
2022/06/25 00:51:14;;;;;;;23.10;21.15;;;17.80;99.90;;;;;;4971281;28;20050;-68
2022/06/25 00:53:42;;;;;;;27.50;25.10;;;17.80;99.90;;;;;;4977675;28;20054;-69
2022/06/25 00:56:10;;;;;;;21.15;19.38;;;17.70;99.90;;;;;;4976670;28;20675;-69
2022/06/25 00:58:43;;;;;;;23.90;22.00;;;17.70;99.90;;;;;;4980437;28;20073;-69
2022/06/25 01:01:09;;;;;;;22.92;21.13;;;17.70;99.90;;;;;;4978187;28;20076;-69
2022/06/25 01:03:37;;;;;;;24.83;22.52;;;17.70;99.90;;;;;;4972077;28;20046;-69
2022/06/25 01:06:05;;;;;;;24.65;22.65;;;17.70;99.90;;;;;;4960521;28;20488;-69
2022/06/25 01:08:32;;;;;;;26.42;24.33;;;17.70;99.90;;;;;;4973860;28;20050;-69
2022/06/25 01:10:59;;;;;;;24.40;22.50;;;17.60;99.90;;;;;;4979607;28;20058;-69
2022/06/25 01:13:24;;;;;;;24.98;22.98;;;17.60;99.90;;;;;;4973656;28;20057;-69
2022/06/25 01:15:50;;;;;;;22.15;20.35;;;17.50;99.90;;;;;;4973483;28;20050;-69
2022/06/25 01:18:16;;;;;;;23.77;21.80;;;17.50;99.90;;;;;;4977301;28;20043;-69
2022/06/25 01:20:42;;;;;;;24.10;21.75;;;17.50;99.90;;;;;;4977735;28;20191;-69
2022/06/25 01:23:09;;;;;;;21.10;19.40;;;17.50;99.90;;;;;;4962485;28;20072;-69
2022/06/25 01:25:37;;;;;;;22.63;20.65;;;17.50;99.90;;;;;;4957699;28;20413;-69
2022/06/25 01:28:03;;;;;;;20.48;18.77;;;17.50;99.90;;;;;;4971795;28;20509;-69
2022/06/25 01:30:30;;;;;;;23.88;21.95;;;17.50;99.90;;;;;;4978112;28;20073;-69
2022/06/25 01:32:56;;;;;;;21.98;20.23;;;17.40;99.90;;;;;;4971216;28;20081;-69
2022/06/25 01:35:22;;;;;;;20.13;18.42;;;17.40;99.90;;;;;;4972234;28;20133;-69
2022/06/25 01:37:48;;;;;;;23.85;21.88;;;17.50;99.90;;;;;;4942564;28;20068;-69
2022/06/25 01:40:15;;;;;;;19.45;17.92;;;17.40;99.90;;;;;;4961391;28;20046;-69
2022/06/25 01:42:58;;;;;;;22.17;20.35;;;17.40;99.90;;;;;;4961803;28;20053;-69
2022/06/25 01:45:34;;;;;;;22.70;20.90;;;17.40;99.90;;;;;;4946831;28;20045;-69
2022/06/25 01:49:11;;;;;;;21.52;19.77;;;17.40;99.90;;;;;;4970693;28;20053;-69
2022/06/25 01:51:55;;;;;;;;;;;;;;;;;;;;;
2022/06/25 01:55:10;;;;;;;18.88;17.27;;;17.30;99.90;;;;;;4972558;28;20056;-69
2022/06/25 01:57:37;;;;;;;20.95;19.27;;;17.30;99.90;;;;;;4964127;28;20046;-69
2022/06/25 02:00:06;;;;;;;20.00;18.35;;;17.20;99.90;;;;;;4978518;28;20212;-69
2022/06/25 02:02:32;;;;;;;21.20;19.48;;;17.20;99.90;;;;;;4963553;28;20092;-69
2022/06/25 02:04:58;;;;;;;20.20;18.40;;;17.10;99.90;;;;;;4974438;28;20049;-69
2022/06/25 02:07:23;;;;;;;20.15;18.55;;;17.20;99.90;;;;;;4964667;28;20038;-69
2022/06/25 02:09:49;;;;;;;22.40;20.60;;;17.10;99.90;;;;;;4980478;28;20053;-69
2022/06/25 02:12:15;;;;;;;18.50;17.00;;;17.10;99.90;;;;;;4964246;28;20096;-69
2022/06/25 02:14:41;;;;;;;16.52;15.00;;;17.00;99.90;;;;;;4996248;28;20077;-69
2022/06/25 02:17:07;;;;;;;20.73;19.13;;;17.10;99.90;;;;;;4980278;28;20058;-68
2022/06/25 02:19:33;;;;;;;19.70;18.05;;;17.00;99.90;;;;;;4964096;28;20525;-69
2022/06/25 02:21:59;;;;;;;19.13;17.67;;;17.10;99.90;;;;;;4981385;28;20104;-69
2022/06/25 02:24:25;;;;;;;16.23;14.93;;;17.00;99.90;;;;;;4997477;28;20084;-69
2022/06/25 02:26:51;;;;;;;19.02;17.52;;;17.00;99.90;;;;;;4980103;28;20057;-69
2022/06/25 02:29:17;;;;;;;19.45;17.67;;;17.00;99.90;;;;;;4980256;28;20069;-69
2022/06/25 02:31:42;;;;;;;17.90;16.40;;;17.00;99.90;;;;;;4979315;28;20046;-69
2022/06/25 02:34:08;;;;;;;19.13;17.42;;;16.90;99.90;;;;;;4979118;28;20129;-69
2022/06/25 02:36:34;;;;;;;19.75;18.25;;;17.00;99.90;;;;;;4978881;28;20385;-69
2022/06/25 02:39:00;;;;;;;19.20;17.70;;;16.90;99.90;;;;;;4975922;28;20053;-69
2022/06/25 02:41:26;;;;;;;18.48;17.05;;;16.90;99.90;;;;;;5001236;28;20528;-69
2022/06/25 02:43:51;;;;;;;19.33;17.73;;;16.90;99.90;;;;;;4978839;28;20058;-69
2022/06/25 02:46:20;;;;;;;19.10;17.60;;;16.90;99.90;;;;;;4985947;28;20540;-70
2022/06/25 02:48:46;;;;;;;19.05;17.55;;;16.90;99.90;;;;;;4986573;28;20046;-69
2022/06/25 02:51:16;;;;;;;21.35;19.48;;;16.90;99.90;;;;;;4964488;28;20251;-69
2022/06/25 02:53:42;;;;;;;21.30;19.40;;;16.80;99.90;;;;;;4965998;28;20172;-69
2022/06/25 02:58:56;;;;;;;19.88;18.27;;;16.80;99.90;;;;;;4982933;28;20046;-69
2022/06/25 03:01:27;;;;;;;19.43;17.90;;;16.70;99.90;;;;;;4981444;28;20065;-69
2022/06/25 03:03:54;;;;;;;19.80;18.30;;;16.70;99.90;;;;;;4973021;28;20043;-69
2022/06/25 03:06:21;;;;;;;19.52;18.05;;;16.70;99.90;;;;;;4987814;28;20145;-69
2022/06/25 03:08:50;;;;;;;19.30;17.70;;;16.70;99.90;;;;;;4989998;28;20050;-69
2022/06/25 03:11:20;;;;;;;20.48;18.88;;;16.70;99.90;;;;;;4970722;28;20046;-69
2022/06/25 03:13:46;;;;;;;17.48;15.98;;;16.70;99.90;;;;;;4970139;28;20042;-70
2022/06/25 03:16:12;;;;;;;18.52;16.92;;;16.70;99.90;;;;;;4982525;28;20053;-69
2022/06/25 03:18:38;;;;;;;17.70;16.20;;;16.70;99.90;;;;;;4993052;28;20057;-69
2022/06/25 03:21:04;;;;;;;19.90;18.38;;;16.70;99.90;;;;;;4956415;28;20097;-69
2022/06/25 03:23:30;;;;;;;17.00;15.57;;;16.60;99.90;;;;;;4988202;28;20046;-69
2022/06/25 03:25:56;;;;;;;19.83;18.23;;;16.60;99.90;;;;;;4987642;28;20119;-69
2022/06/25 03:28:22;;;;;;;16.63;15.25;;;16.50;99.90;;;;;;4981318;28;20051;-70
2022/06/25 03:30:48;;;;;;;19.33;17.65;;;16.50;99.90;;;;;;4990363;28;20042;-68
2022/06/25 03:33:14;;;;;;;19.48;17.88;;;16.50;99.90;;;;;;4973619;28;20046;-70
2022/06/25 03:35:40;;;;;;;20.27;18.45;;;16.50;99.90;;;;;;4979660;28;20042;-70
2022/06/25 03:38:06;;;;;;;18.65;17.05;;;16.50;99.90;;;;;;4982499;28;21329;-70
2022/06/25 03:40:32;;;;;;;18.85;17.15;;;16.50;99.90;;;;;;4987856;28;20077;-70
2022/06/25 03:42:59;;;;;;;17.67;16.17;;;16.50;99.90;;;;;;4983619;28;20054;-70
2022/06/25 03:45:25;;;;;;;17.35;15.65;;;16.60;99.90;;;;;;4981027;28;20066;-70
2022/06/25 03:47:51;;;;;;;17.75;16.15;;;16.60;99.90;;;;;;4974576;28;20108;-70
2022/06/25 03:50:18;;;;;;;16.92;15.55;;;16.60;99.90;;;;;;4970828;28;20054;-70
2022/06/25 03:52:46;;;;;;;16.55;15.15;;;16.60;99.90;;;;;;4988366;28;20743;-70
2022/06/25 03:55:12;;;;;;;17.50;16.13;;;16.70;99.90;;;;;;4982717;28;20081;-70
2022/06/25 03:57:38;;;;;;;16.38;14.95;;;16.70;99.90;;;;;;4969434;28;20722;-70
2022/06/25 04:00:06;;;;;;;16.02;14.63;;;16.70;99.90;;;;;;4987010;28;20149;-70
2022/06/25 04:02:32;;;;;;;15.75;14.38;;;16.70;99.90;;;;;;4984892;28;20629;-70
2022/06/25 04:04:58;;;;;;;16.65;15.27;;;16.70;99.90;;;;;;4980161;28;20611;-69
2022/06/25 04:07:24;;;;;;;15.80;14.40;;;16.70;99.90;;;;;;4972488;28;20056;-70
2022/06/25 04:09:50;;;;;;;16.05;14.70;;;16.70;99.90;;;;;;4988295;28;20057;-70
2022/06/25 04:12:16;;;;;;;15.10;13.70;;;16.80;99.90;;;;;;4987069;28;20081;-69
2022/06/25 04:14:41;;;;;;;14.65;13.35;;;16.80;99.90;;;;;;4982566;28;20050;-70
2022/06/25 04:17:07;;;;;;;15.43;14.15;;;16.80;99.90;;;;;;4968833;28;20160;-69
2022/06/25 04:19:42;;;;;;;14.05;12.70;;;16.80;99.90;;;;;;4988527;28;20065;-70
2022/06/25 04:22:12;;;;;;;13.85;12.55;;;16.90;99.90;;;;;;4987568;28;20058;-69
2022/06/25 04:24:39;;;;;;;13.90;12.70;;;16.90;99.90;;;;;;4989550;28;20904;-69
2022/06/25 04:27:06;;;;;;;15.27;13.82;;;16.90;99.90;;;;;;4974106;28;20458;-69
2022/06/25 04:29:32;;;;;;;14.25;13.02;;;16.90;99.90;;;;;;4987504;28;20394;-69
2022/06/25 04:32:01;;;;;;;14.95;13.55;;;17.00;99.90;;;;;;4986709;28;20065;-71
2022/06/25 04:34:27;;;;;;;13.90;12.75;;;17.00;99.90;;;;;;4982071;28;20057;-69
2022/06/25 04:36:53;;;;;;;12.82;11.57;;;17.00;99.90;;;;;;4987819;28;20485;-69
2022/06/25 04:39:18;;;;;;;12.07;10.90;;;17.10;99.90;;;;;;4982275;28;20489;-69
2022/06/25 04:41:45;;;;;;;12.88;11.70;;;17.10;99.90;;;;;;4988190;28;20506;-69
2022/06/25 04:44:15;;;;;;;12.95;11.75;;;17.10;99.90;;;;;;4984837;28;20695;-70
2022/06/25 04:46:42;;;;;;;14.20;12.90;;;17.20;99.90;;;;;;4964805;28;21559;-70
2022/06/25 04:49:08;;;;;;;13.48;12.25;;;17.20;99.90;;;;;;4969421;28;20033;-69
2022/06/25 04:51:34;;;;;;;13.45;12.35;;;17.30;99.90;;;;;;4970907;28;20493;-69
2022/06/25 04:54:02;;;;;;;13.60;12.38;;;17.20;99.90;;;;;;4987767;28;20065;-69
2022/06/25 04:56:30;;;;;;;13.25;11.95;;;17.30;99.90;;;;;;4994690;28;20050;-69
2022/06/25 04:58:57;;;;;;;12.52;11.43;;;17.40;99.90;;;;;;4978878;28;21072;-69
2022/06/25 05:01:24;;;;;;;13.15;11.93;;;17.30;99.90;;;;;;4975367;28;20077;-69
2022/06/25 05:03:49;;;;;;;12.40;11.20;;;17.40;99.90;;;;;;4978843;28;20125;-69
2022/06/25 05:06:16;;;;;;;12.55;11.40;;;17.50;99.90;;;;;;4985775;28;20544;-70
2022/06/25 05:08:42;;;;;;;13.32;12.07;;;17.50;99.90;;;;;;4994064;28;20046;-69
2022/06/25 05:11:08;;;;;;;12.65;11.45;;;17.50;99.90;;;;;;4987615;28;20061;-69
2022/06/25 05:13:34;;;;;;;12.15;11.00;;;17.50;99.90;;;;;;4963949;28;20064;-70
2022/06/25 05:16:00;;;;;;;12.45;11.25;;;17.60;99.90;;;;;;4967839;28;20050;-69
2022/06/25 05:18:26;;;;;;;11.82;10.65;;;17.60;99.90;;;;;;4960997;28;20057;-69
2022/06/25 05:20:51;;;;;;;13.55;12.25;;;17.60;99.90;;;;;;4970294;28;20050;-69
2022/06/25 05:23:20;;;;;;;14.57;13.18;;;17.70;99.90;;;;;;4987106;28;20089;-69
2022/06/25 05:25:46;;;;;;;13.15;11.95;;;17.70;99.90;;;;;;4984590;28;20108;-69
2022/06/25 05:28:12;;;;;;;12.07;10.90;;;17.70;99.90;;;;;;4977764;28;20061;-69
2022/06/25 05:30:38;;;;;;;12.07;10.95;;;17.80;99.90;;;;;;4983958;28;20044;-69
2022/06/25 05:33:04;;;;;;;11.57;10.38;;;17.80;99.90;;;;;;4987659;28;20129;-69
2022/06/25 05:35:30;;;;;;;12.25;11.05;;;17.90;99.90;;;;;;4986135;28;20081;-69
2022/06/25 05:37:56;;;;;;;11.88;10.82;;;17.90;99.90;;;;;;4995717;28;20472;-69
2022/06/25 05:40:21;;;;;;;12.13;11.07;;;17.90;99.90;;;;;;4969940;28;20042;-69
2022/06/25 05:42:48;;;;;;;11.95;10.75;;;18.00;99.90;;;;;;4962390;28;20054;-69
2022/06/25 05:45:13;;;;;;;11.48;10.38;;;18.10;99.90;;;;;;4962184;28;20086;-70
2022/06/25 05:47:40;;;;;;;10.45;9.55;;;18.10;99.90;;;;;;4984175;28;20045;-70
2022/06/25 05:50:07;;;;;;;11.82;10.65;;;18.10;99.90;;;;;;4977885;28;20038;-70
2022/06/25 05:52:33;;;;;;;11.82;10.60;;;18.20;99.90;;;;;;4981914;28;20077;-71
2022/06/25 05:54:59;;;;;;;11.18;10.05;;;18.30;99.90;;;;;;4978783;28;20700;-71
2022/06/25 05:57:24;;;;;;;10.20;9.40;;;18.30;99.90;;;;;;4971600;28;20048;-70
2022/06/25 05:59:50;;;;;;;10.18;9.23;;;18.40;99.90;;;;;;4967719;28;20522;-70
2022/06/25 06:02:16;;;;;;;10.13;9.23;;;18.50;99.90;;;;;;4963112;28;20042;-70
2022/06/25 06:04:42;;;;;;;10.30;8.55;;;18.50;99.90;;;;;;4993875;28;20057;-70
2022/06/25 06:07:08;;;;;;;10.43;9.23;;;18.60;99.90;;;;;;4978746;28;20358;-70
2022/06/25 06:09:34;;;;;;;10.07;8.43;;;18.60;99.90;;;;;;4976438;28;20057;-70
2022/06/25 06:12:00;;;;;;;9.10;8.20;;;18.70;99.90;;;;;;4985127;28;20042;-71
2022/06/25 06:14:26;;;;;;;9.70;8.68;;;18.80;99.90;;;;;;4966207;28;20053;-71
2022/06/25 06:16:52;;;;;;;8.73;7.85;;;18.80;99.90;;;;;;4970932;28;20498;-70
2022/06/25 06:19:20;;;;;;;8.45;7.60;;;18.80;99.90;;;;;;4985528;28;20049;-70
2022/06/25 06:21:46;;;;;;;8.52;7.57;;;18.90;99.90;;;;;;4972715;28;20081;-70
2022/06/25 06:24:12;;;;;;;8.52;7.57;;;18.90;99.90;;;;;;4994120;28;20664;-70
2022/06/25 06:26:38;;;;;;;8.55;7.00;;;19.00;99.90;;;;;;5007799;28;20084;-70
2022/06/25 06:29:04;;;;;;;8.43;6.97;;;19.00;99.90;;;;;;4985356;28;20046;-70
2022/06/25 06:31:30;;;;;;;7.22;6.30;;;19.00;99.90;;;;;;4966997;28;20552;-70
2022/06/25 06:33:56;;;;;;;7.10;6.40;;;19.10;99.90;;;;;;4993798;28;20096;-70
2022/06/25 06:36:23;;;;;;;8.13;6.22;;;19.20;99.90;;;;;;5011071;28;20058;-70
2022/06/25 06:38:50;;;;;;;6.18;5.57;;;19.30;99.90;;;;;;4977993;28;20579;-70
2022/06/25 06:41:17;;;;;;;7.22;5.88;;;19.40;99.90;;;;;;4981382;28;20041;-70
2022/06/25 06:43:44;;;;;;;6.57;5.57;;;19.50;99.90;;;;;;4973503;28;20717;-70
2022/06/25 06:46:09;;;;;;;6.55;5.65;;;19.60;99.90;;;;;;4986804;28;20042;-70
2022/06/25 06:48:35;;;;;;;7.13;5.28;;;19.60;99.90;;;;;;4980335;28;20553;-70
2022/06/25 06:51:01;;;;;;;7.75;5.28;;;19.70;99.90;;;;;;4956063;28;20054;-70
2022/06/25 06:53:27;;;;;;;7.63;4.97;;;19.80;99.90;;;;;;4982055;28;20049;-70
2022/06/25 06:55:53;;;;;;;6.72;4.93;;;19.90;99.90;;;;;;4989524;28;20129;-69
2022/06/25 06:58:19;;;;;;;7.13;4.95;;;20.00;99.90;;;;;;4963063;28;20125;-69
2022/06/25 07:00:45;;;;;;;7.13;4.68;;;20.10;99.90;;;;;;4986012;28;20045;-70
2022/06/25 07:03:10;;;;;;;7.45;4.82;;;20.10;99.90;;;;;;4978764;28;20069;-70
2022/06/25 07:05:36;;;;;;;8.10;4.70;;;20.20;99.90;;;;;;4974237;28;20050;-70
2022/06/25 07:08:02;;;;;;;5.80;3.97;;;20.30;99.90;;;;;;4986551;28;20053;-70
2022/06/25 07:10:28;;;;;;;9.15;4.55;;;20.40;99.90;;;;;;4979172;28;20042;-70
2022/06/25 07:12:54;;;;;;;7.15;4.10;;;20.50;99.90;;;;;;4985081;28;20144;-70
2022/06/25 07:15:20;;;;;;;5.80;4.10;;;20.60;99.90;;;;;;4955611;28;20121;-69
2022/06/25 07:17:46;;;;;;;7.88;3.97;;;20.70;99.90;;;;;;4986029;28;20052;-70
2022/06/25 07:20:11;;;;;;;5.22;3.63;;;20.80;99.90;;;;;;4987604;28;20081;-69
2022/06/25 07:22:37;;;;;;;5.63;3.53;;;20.80;99.90;;;;;;4970849;28;20050;-70
2022/06/25 07:25:04;;;;;;;6.32;3.88;;;20.90;99.90;;;;;;4964907;28;20046;-69
2022/06/25 07:27:30;;;;;;;5.07;3.50;;;21.00;99.90;;;;;;4972348;28;20544;-70
2022/06/25 07:29:56;;;;;;;5.65;3.50;;;21.10;99.90;;;;;;4988811;28;20096;-70
2022/06/25 07:32:22;;;;;;;6.10;3.45;;;21.20;99.90;;;;;;4971529;28;20728;-69
2022/06/25 07:34:48;;;;;;;5.22;3.47;;;21.30;99.90;;;;;;5014854;28;20061;-69
2022/06/25 07:37:14;;;;;;;5.93;3.42;;;21.30;99.90;;;;;;4990826;28;20038;-69
2022/06/25 07:39:40;;;;;;;8.63;3.30;;;21.50;99.90;;;;;;4971414;28;20189;-69
2022/06/25 07:42:06;;;;;;;5.32;2.60;;;21.50;99.90;;;;;;4970860;28;20081;-69
2022/06/25 07:44:32;;;;;;;6.43;3.20;;;21.60;99.90;;;;;;4990134;28;20061;-69
2022/06/25 07:46:58;;;;;;;5.55;3.63;;;21.70;99.90;;;;;;5009326;28;20042;-71
2022/06/25 07:49:23;;;;;;;5.35;3.15;;;21.80;99.90;;;;;;4977773;28;20455;-70
2022/06/25 07:52:01;;;;;;;5.43;3.00;;;21.80;99.90;;;;;;4971051;28;20058;-69
2022/06/25 07:54:30;;;;;;;4.63;2.92;;;21.90;99.90;;;;;;4977705;28;20038;-69
2022/06/25 07:56:57;;;;;;;4.70;2.85;;;22.00;99.90;;;;;;4986030;28;20046;-70
2022/06/25 07:59:23;;;;;;;7.25;3.08;;;22.00;99.90;;;;;;4979306;28;20050;-70
2022/06/25 08:01:51;;;;;;;4.55;3.22;;;22.10;99.90;;;;;;4987307;28;20493;-69
2022/06/25 08:04:17;;;;;;;4.35;3.03;;;22.30;99.90;;;;;;4995519;28;20050;-70
2022/06/25 08:06:46;;;;;;;4.82;3.47;;;22.30;99.90;;;;;;4993882;28;20038;-69
2022/06/25 08:09:15;;;;;;;5.00;3.35;;;22.40;99.90;;;;;;4976793;28;20050;-70
2022/06/25 08:11:44;;;;;;;5.43;3.22;;;22.40;99.90;;;;;;4976926;28;20497;-69
2022/06/25 08:14:10;;;;;;;6.55;3.15;;;22.60;99.90;;;;;;4970269;28;20064;-69
2022/06/25 08:16:37;;;;;;;4.18;2.95;;;22.60;99.90;;;;;;4970911;28;22027;-70
2022/06/25 08:19:04;;;;;;;6.07;3.30;;;22.60;99.90;;;;;;4986591;28;20069;-69
2022/06/25 08:21:29;;;;;;;7.80;2.88;;;22.60;99.90;;;;;;4989268;28;20169;-70
2022/06/25 08:23:55;;;;;;;4.80;2.15;;;22.60;99.90;;;;;;4968703;28;20480;-70
2022/06/25 08:26:21;;;;;;;5.70;3.10;;;22.70;99.90;;;;;;4956148;28;20050;-69
2022/06/25 08:28:50;;;;;;;6.55;2.80;;;22.90;99.90;;;;;;4986326;28;20317;-70
2022/06/25 08:31:16;;;;;;;9.38;2.60;;;22.90;99.90;;;;;;4962478;28;20046;-69
2022/06/25 08:33:42;;;;;;;4.68;2.05;;;22.90;99.90;;;;;;4979320;28;20057;-69
2022/06/25 08:36:08;;;;;;;4.75;1.83;;;23.00;99.90;;;;;;4969336;28;20401;-69
2022/06/25 08:38:34;;;;;;;3.22;1.42;;;23.00;99.90;;;;;;4970133;28;20193;-69
2022/06/25 08:41:00;;;;;;;5.20;1.85;;;23.00;99.90;;;;;;5010457;28;20062;-69
2022/06/25 08:43:27;;;;;;;3.15;1.60;;;23.00;99.90;;;;;;5009469;28;20059;-69
2022/06/25 08:45:57;;;;;;;4.05;2.10;;;23.10;99.90;;;;;;4977345;28;20093;-69
2022/06/25 08:48:24;;;;;;;;;;;23.20;99.90;;;;;;4954269;28;20136;-69
2022/06/25 08:50:51;;;;;;;3.90;1.98;;;23.30;99.90;;;;;;4983205;28;19930;-69
2022/06/25 08:53:21;;;;;;;3.40;1.60;;;23.30;99.90;;;;;;4987498;28;20532;-69
2022/06/25 08:55:50;;;;;;;4.28;2.22;;;23.30;99.90;;;;;;4987193;28;20050;-69
2022/06/25 08:58:16;;;;;;;6.28;2.28;;;23.30;99.90;;;;;;4986975;28;20056;-69
2022/06/25 09:00:45;;;;;;;3.40;1.88;;;23.30;99.90;;;;;;4992332;28;20050;-69
2022/06/25 09:03:11;;;;;;;5.13;1.98;;;23.30;99.90;;;;;;4986448;28;21630;-69
2022/06/25 09:05:42;;;;;;;4.07;2.30;;;23.10;99.90;;;;;;4964076;28;20072;-69
2022/06/25 09:08:15;;;;;;;3.10;1.80;;;23.10;99.90;;;;;;4978926;28;20039;-69
2022/06/25 09:10:46;;;;;;;4.18;2.13;;;23.00;99.90;;;;;;4987141;28;20042;-69
2022/06/25 09:13:13;;;;;;;3.28;1.95;;;23.00;99.90;;;;;;4979995;28;20113;-69
2022/06/25 09:15:44;;;;;;;6.88;2.17;;;23.00;99.90;;;;;;4987330;28;20523;-69
2022/06/25 09:18:15;;;;;;;2.53;1.48;;;23.10;99.90;;;;;;4988354;28;20494;-69
2022/06/25 09:21:01;;;;;;;4.07;1.75;;;23.40;99.90;;;;;;4984711;28;20563;-70
2022/06/25 09:24:00;;;;;;;3.83;2.00;;;23.60;99.90;;;;;;4993377;28;20034;-69
2022/06/25 09:26:26;;;;;;;5.97;2.28;;;23.80;99.90;;;;;;4986792;28;20529;-69
2022/06/25 09:29:01;;;;;;;4.28;2.03;;;23.90;99.90;;;;;;4985934;28;20092;-70
2022/06/25 09:31:37;;;;;;;3.80;2.08;;;23.80;99.90;;;;;;4985277;28;20045;-69
2022/06/25 09:34:04;;;;;;;3.00;1.88;;;23.70;99.90;;;;;;4985870;28;20100;-69
2022/06/25 09:36:30;;;;;;;2.95;1.67;;;23.70;99.90;;;;;;4987177;28;20049;-69
2022/06/25 09:38:56;;;;;;;3.92;1.60;;;23.70;99.90;;;;;;4976495;28;20057;-70
2022/06/25 09:41:25;;;;;;;3.25;1.92;;;23.90;99.90;;;;;;4979094;28;20046;-70
2022/06/25 09:43:52;;;;;;;5.65;1.95;;;23.90;99.90;;;;;;4971685;28;20081;-71
2022/06/25 09:46:18;;;;;;;6.65;2.65;;;23.90;99.90;;;;;;4987520;28;20075;-70
2022/06/25 09:48:44;;;;;;;5.57;1.83;;;23.80;99.90;;;;;;4988374;28;20444;-69
2022/06/25 09:51:19;;;;;;;3.42;1.50;;;23.90;99.90;;;;;;4977154;28;20057;-70
2022/06/25 09:53:50;;;;;;;4.55;2.10;;;24.00;99.90;;;;;;4979412;28;20049;-70
2022/06/25 09:56:23;;;;;;;2.83;2.00;;;24.00;99.90;;;;;;4989778;28;20101;-70
2022/06/25 09:58:50;;;;;;;4.03;2.00;;;24.10;99.90;;;;;;4971995;28;20045;-70
2022/06/25 10:01:17;;;;;;;2.45;1.60;;;24.20;99.90;;;;;;4987017;28;20050;-69
2022/06/25 10:03:45;;;;;;;4.55;1.95;;;24.10;99.90;;;;;;4985848;28;20109;-70
2022/06/25 10:06:14;;;;;;;4.15;1.58;;;24.00;99.90;;;;;;4972287;28;20045;-70
2022/06/25 10:08:45;;;;;;;5.75;1.95;;;24.10;99.90;;;;;;4985254;28;20045;-70
2022/06/25 10:11:12;;;;;;;2.60;1.35;;;24.20;99.90;;;;;;4976156;28;20408;-69
2022/06/25 10:13:39;;;;;;;4.55;1.48;;;24.40;99.90;;;;;;4983845;28;20042;-69
2022/06/25 10:16:05;;;;;;;5.05;1.40;;;24.50;99.90;;;;;;4971544;28;20065;-69
2022/06/25 10:18:33;;;;;;;4.88;1.70;;;24.70;99.90;;;;;;4993085;28;20107;-70
2022/06/25 10:20:59;;;;;;;4.40;1.75;;;24.60;99.90;;;;;;4987005;28;20053;-70
2022/06/25 10:23:25;;;;;;;2.22;1.20;;;24.50;99.90;;;;;;4979232;28;20090;-70
2022/06/25 10:25:51;;;;;;;4.53;1.40;;;24.40;99.90;;;;;;4990013;28;20049;-69
2022/06/25 10:28:25;;;;;;;2.90;1.30;;;24.40;99.90;;;;;;4988676;28;20038;-70
2022/06/25 10:30:53;;;;;;;3.25;1.20;;;24.60;99.90;;;;;;4975579;28;20050;-70
2022/06/25 10:33:27;;;;;;;3.08;1.00;;;24.50;99.90;;;;;;4981113;28;20057;-70
2022/06/25 10:35:58;;;;;;;2.00;1.17;;;24.50;99.90;;;;;;4973126;28;20055;-71
2022/06/25 10:38:27;;;;;;;3.30;1.40;;;24.60;99.90;;;;;;4995608;28;20169;-70
2022/06/25 10:43:57;;;;;;;3.55;1.08;;;24.60;99.90;;;;;;4992250;28;20058;-69
2022/06/25 10:46:31;;;;;;;2.83;1.02;;;24.60;99.90;;;;;;4973989;28;20046;-70
2022/06/25 10:49:02;;;;;;;2.03;1.02;;;24.50;99.90;;;;;;4980206;28;20034;-70
2022/06/25 10:51:42;;;;;;;3.13;1.08;;;24.40;99.90;;;;;;4993308;28;20639;-70
2022/06/25 10:54:33;;;;;;;3.22;1.13;;;24.30;99.90;;;;;;4985929;28;20054;-69
2022/06/25 10:57:04;;;;;;;4.03;1.25;;;24.20;99.90;;;;;;4969590;28;20061;-70
2022/06/25 10:59:37;;;;;;;4.63;1.25;;;24.10;99.90;;;;;;4991081;28;20386;-70
2022/06/25 11:02:07;;;;;;;3.25;1.30;;;24.00;99.90;;;;;;4993476;28;20050;-70
2022/06/25 11:04:34;;;;;;;4.25;1.20;;;24.00;99.90;;;;;;4990132;28;20086;-69
2022/06/25 11:07:19;;;;;;;4.35;1.25;;;24.10;99.90;;;;;;4987629;28;20107;-70
2022/06/25 11:10:11;;;;;;;3.83;1.20;;;24.20;99.90;;;;;;4974355;28;20092;-70
2022/06/25 11:12:38;;;;;;;4.68;1.20;;;24.00;99.90;;;;;;4987715;28;20054;-69
2022/06/25 11:15:08;;;;;;;5.25;1.70;;;23.90;99.90;;;;;;4979761;28;20501;-69
2022/06/25 11:17:35;;;;;;;3.47;1.20;;;23.70;99.90;;;;;;4988494;28;20046;-69
2022/06/25 11:20:09;;;;;;;3.95;0.95;;;23.50;99.90;;;;;;4983989;28;20046;-69
2022/06/25 11:22:53;;;;;;;3.13;1.00;;;23.40;99.90;;;;;;4975219;28;20054;-70
2022/06/25 11:30:50;;;;;;;2.50;1.15;;;23.40;99.90;;;;;;4989926;28;20133;-69
2022/06/25 11:33:16;;;;;;;2.42;1.30;;;23.40;99.90;;;;;;4981916;28;20493;-70
2022/06/25 11:35:44;;;;;;;3.65;1.48;;;23.40;99.90;;;;;;4971608;28;20038;-69
2022/06/25 11:38:20;;;;;;;4.75;1.40;;;23.40;99.90;;;;;;5014081;28;20046;-69
2022/06/25 11:40:46;;;;;;;3.55;1.48;;;23.50;99.90;;;;;;4991594;28;20085;-70
2022/06/25 11:43:14;;;;;;;3.45;1.33;;;23.60;99.90;;;;;;4987869;28;20050;-70
2022/06/25 11:45:49;;;;;;;3.53;1.38;;;23.60;99.90;;;;;;4989366;28;20102;-69
2022/06/25 11:48:15;;;;;;;2.95;1.20;;;23.60;99.90;;;;;;4996093;28;20088;-69
2022/06/25 11:50:41;;;;;;;3.92;1.40;;;23.60;99.90;;;;;;4989038;28;20070;-70
2022/06/25 11:53:06;;;;;;;3.42;1.40;;;23.60;99.90;;;;;;4958479;28;20117;-69
2022/06/25 11:55:32;;;;;;;2.33;1.27;;;23.50;99.90;;;;;;4975389;28;20651;-70
2022/06/25 11:57:59;;;;;;;3.90;1.50;;;23.40;99.90;;;;;;4971633;28;20048;-68
2022/06/25 12:00:25;;;;;;;3.05;1.30;;;23.30;99.90;;;;;;4986325;28;20068;-69
2022/06/25 12:03:01;;;;;;;3.00;1.35;;;23.20;99.90;;;;;;4975571;28;20147;-69
2022/06/25 12:05:28;;;;;;;3.60;1.50;;;23.10;99.90;;;;;;4985016;28;20882;-69
2022/06/25 12:07:57;;;;;;;3.05;1.70;;;23.00;99.90;;;;;;4938516;28;20042;-69
2022/06/25 12:10:23;;;;;;;4.82;2.10;;;22.90;99.90;;;;;;4975565;28;20057;-70
2022/06/25 12:12:49;;;;;;;4.53;1.92;;;22.80;99.90;;;;;;4980018;28;20042;-69
2022/06/25 12:15:15;;;;;;;4.05;2.13;;;22.80;99.90;;;;;;4989473;28;20053;-70
2022/06/25 12:17:41;;;;;;;3.65;2.20;;;22.70;99.90;;;;;;4986567;28;20050;-69
2022/06/25 12:20:11;;;;;;;3.95;2.13;;;22.60;99.90;;;;;;5001638;28;20060;-69
2022/06/25 12:22:42;;;;;;;2.97;2.05;;;22.60;99.90;;;;;;4984960;28;20116;-70
2022/06/25 12:25:10;;;;;;;9.07;2.42;;;22.60;99.90;;;;;;4997494;28;20058;-67
2022/06/25 12:27:46;;;;;;;4.10;1.90;;;22.70;99.90;;;;;;4983537;28;20050;-67
2022/06/25 12:30:13;;;;;;;3.90;2.33;;;22.80;99.90;;;;;;4983159;28;20077;-70
2022/06/25 12:32:43;;;;;;;4.07;2.30;;;22.80;99.90;;;;;;4997811;28;20112;-70
2022/06/25 12:35:14;;;;;;;;;;;22.70;99.90;;;;;;4967050;28;20683;-70
2022/06/25 12:37:40;;;;;;;3.53;2.17;;;22.60;99.90;;;;;;4977068;28;19955;-69
2022/06/25 12:40:10;;;;;;;4.00;2.20;;;22.60;99.90;;;;;;4962917;28;20046;-70
2022/06/25 12:42:36;;;;;;;2.67;1.95;;;22.50;99.90;;;;;;4998343;28;20092;-70
2022/06/25 12:45:02;;;;;;;3.40;2.22;;;22.40;99.90;;;;;;4983691;28;20783;-70
2022/06/25 12:47:40;;;;;;;4.15;2.63;;;22.40;99.90;;;;;;4983280;28;20080;-70
2022/06/25 12:50:19;;;;;;;3.20;1.90;;;22.40;99.90;;;;;;4998623;28;20046;-70
2022/06/25 12:52:45;;;;;;;;;;;22.30;99.90;;;;;;4998821;28;20038;-69
2022/06/25 12:55:19;;;;;;;5.40;2.47;;;22.30;99.90;;;;;;4983311;28;20532;-69
2022/06/25 12:57:44;;;;;;;4.43;2.28;;;22.30;99.90;;;;;;4999707;28;20065;-70
2022/06/25 13:00:22;;;;;;;5.55;2.72;;;22.30;99.90;;;;;;4983404;28;20057;-70
2022/06/25 13:02:48;;;;;;;4.10;2.50;;;22.30;99.90;;;;;;4997521;28;20638;-70